Hercules — D5DW2 — position and weather

sailwx.info

Track history (hours):
 
Tides and Currents Weather Stations Pressure Air Temp Water Temp Dewpoint Dewpoint Depression Visibility Wind Speed Wind Dir Waves Ship Positions

Hercules

Last reported at 2017-Nov-05 04:43 UTC. Time now 2017-Nov-17 17:52 UTC.
Position N 38°21' W 010°01'.
Warning: this ship's position is 12 days out of date.

Length 225 m; draft 12.8 m.

Type: Cargo ship. MMSI: 636015986.

Date/timePositionNaut miles runAvg speedWind from/ knotsBaromVisibWave heightAir tempDewpointWater temp
2017-Nov-05 04:43N 38°21' W 010°01'312.6
2017-Nov-05 04:30N 38°23' W 010°01'612.6
2017-Nov-05 04:00N 38°29' W 010°03'612.7
2017-Nov-05 03:30N 38°35' W 010°05'612.5
2017-Nov-05 03:00N 38°42' W 010°07'612.1
2017-Nov-05 02:30N 38°48' W 010°07'611.7
2017-Nov-05 02:00N 38°53' W 010°08'611.9
2017-Nov-05 01:30N 38°59' W 010°09'611.6
2017-Nov-05 01:00N 39°05' W 010°09'611.9
2017-Nov-05 00:30N 39°11' W 010°09'56812.6
2017-Nov-03 03:24N 48°14' W 006°19'612.1
2017-Nov-03 02:56N 48°19' W 006°15'511.6
2017-Nov-03 02:27N 48°24' W 006°11'1311.3
2017-Nov-03 01:17N 48°36' W 006°01'311.2
2017-Nov-03 01:01N 48°38' W 005°59'611.3
2017-Nov-03 00:26N 48°44' W 005°55'612.0
2017-Nov-02 23:57N 48°49' W 005°51'612.1
2017-Nov-02 23:29N 48°54' W 005°45'613.1
2017-Nov-02 22:59N 48°57' W 005°37'713.4
2017-Nov-02 22:26N 49°02' W 005°29'713.6
2017-Nov-02 21:57N 49°07' W 005°22'4912.9
2017-Nov-02 18:08N 49°35' W 004°19'1712.1
2017-Nov-02 16:44N 49°42' W 003°55'511.6
2017-Nov-02 16:19N 49°44' W 003°48'411.5
2017-Nov-02 16:00N 49°45' W 003°43'711.5
2017-Nov-02 15:22N 49°48' W 003°33'411.8
2017-Nov-02 15:00N 49°50' W 003°27'612.3
2017-Nov-02 14:30N 49°52' W 003°18'713.0
2017-Nov-02 14:00N 49°55' W 003°09'713.8
2017-Nov-02 13:30N 49°58' W 002°59'714.3
2017-Nov-02 13:00N 50°00' W 002°48'815.1
2017-Nov-02 12:30N 50°02' W 002°37'815.6
2017-Nov-02 12:00N 50°04' W 002°25'1615.9
2017-Nov-02 11:00N 50°08' W 002°01'715.2
2017-Nov-02 10:30N 50°10' W 001°50'714.3
2017-Nov-02 10:00N 50°12' W 001°39'713.5
2017-Nov-02 09:29N 50°14' W 001°28'2111.8
2017-Nov-02 07:44N 50°19' W 000°57'210.5
2017-Nov-02 07:30N 50°20' W 000°53'1710.0
2017-Nov-02 05:48N 50°25' W 000°28'310.7
2017-Nov-02 05:30N 50°25' W 000°23'611.3
2017-Nov-02 05:00N 50°27' W 000°14'612.0
2017-Nov-02 04:30N 50°29' W 000°05'612.6
2017-Nov-02 04:00N 50°30' E 000°04'713.2
2017-Nov-02 03:30N 50°32' E 000°14'713.6
2017-Nov-02 03:00N 50°34' E 000°24'713.8
2017-Nov-02 02:30N 50°36' E 000°35'713.8
2017-Nov-02 02:00N 50°40' E 000°43'713.5
2017-Nov-02 01:30N 50°45' E 000°52'713.1
2017-Nov-02 01:00N 50°49' E 001°00'612.5
2017-Nov-02 00:30N 50°53' E 001°07'611.7
2017-Nov-02 00:00N 50°57' E 001°14'510.8
2017-Nov-01 23:30N 51°01' E 001°20'5 9.9
2017-Nov-01 23:00N 51°03' E 001°27'5 9.4
2017-Nov-01 22:30N 51°05' E 001°33'4 8.0
2017-Nov-01 22:00N 51°07' E 001°39'5 9.7
2017-Nov-01 21:30N 51°03' E 001°45'4 7.6
2017-Nov-01 21:00N 51°03' E 001°51'4 7.4
2017-Nov-01 20:30N 51°03' E 001°57'5 9.6
2017-Nov-01 20:00N 51°03' E 002°04'510.2
2017-Nov-01 19:30N 51°03' E 002°12'5 9.6
2017-Nov-01 19:00N 51°04' E 002°20'1 1.3
2017-Nov-01 18:30N 51°03' E 002°20'3 0.2
2017-Nov-01 01:58N 51°03' E 002°16'0 0.0
2017-Nov-01 01:22N 51°03' E 002°16'0 0.0
2017-Nov-01 00:58N 51°03' E 002°16'0 0.0
2017-Nov-01 00:25N 51°03' E 002°16'0 0.0
2017-Oct-31 23:52N 51°03' E 002°16'0 0.0
2017-Oct-31 23:28N 51°03' E 002°16'0 0.0
2017-Oct-31 22:58N 51°03' E 002°16'0 0.0
2017-Oct-31 22:28N 51°03' E 002°16'0 0.0
2017-Oct-31 21:58N 51°03' E 002°16'0 0.0
2017-Oct-31 21:28N 51°03' E 002°16'0 0.0
2017-Oct-31 20:58N 51°03' E 002°16'0 0.0
2017-Oct-31 20:28N 51°03' E 002°16'0 0.0
2017-Oct-31 19:52N 51°03' E 002°16'0 0.0
2017-Oct-31 19:25N 51°03' E 002°16'0 0.0
2017-Oct-31 18:52N 51°03' E 002°16'0 0.0
2017-Oct-31 18:22N 51°03' E 002°16'0 0.0
2017-Oct-31 17:58N 51°03' E 002°16'0 0.0
2017-Oct-31 17:28N 51°03' E 002°16'0 0.0
2017-Oct-31 16:58N 51°03' E 002°16'0 0.0
2017-Oct-31 16:25N 51°03' E 002°16'0 0.0
2017-Oct-31 15:58N 51°03' E 002°16'0 0.0
2017-Oct-31 15:28N 51°03' E 002°16'0 0.0
2017-Oct-31 14:58N 51°03' E 002°16'0 0.0
2017-Oct-31 14:25N 51°03' E 002°16'0 0.0
2017-Oct-31 13:58N 51°03' E 002°16'0 0.0
2017-Oct-31 13:22N 51°03' E 002°16'0 0.0
2017-Oct-31 11:49N 51°03' E 002°16'0 0.0
2017-Oct-31 11:28N 51°03' E 002°16'0 0.0
2017-Oct-31 10:49N 51°03' E 002°16'0 0.0
2017-Oct-31 10:28N 51°03' E 002°16'0 0.0
2017-Oct-31 09:55N 51°03' E 002°17'0 0.0
2017-Oct-31 09:16N 51°03' E 002°17'0 0.0
2017-Oct-31 08:55N 51°03' E 002°17'0 0.0
2017-Oct-31 08:28N 51°03' E 002°17'0 0.0
2017-Oct-31 07:46N 51°03' E 002°17'0 0.0
2017-Oct-31 07:28N 51°03' E 002°17'0 0.0
2017-Oct-31 06:58N 51°03' E 002°17'0 0.0
2017-Oct-31 06:28N 51°03' E 002°17'0 0.0
2017-Oct-31 05:58N 51°03' E 002°17'0 0.0
2017-Oct-31 05:28N 51°03' E 002°17'0 0.0
2017-Oct-31 04:58N 51°03' E 002°17'0 0.0
2017-Oct-31 04:25N 51°03' E 002°17'0 0.0
2017-Oct-31 03:58N 51°03' E 002°17'0 0.0
2017-Oct-31 03:28N 51°03' E 002°17'0 0.0
2017-Oct-31 02:58N 51°03' E 002°17'0 0.0
2017-Oct-31 02:28N 51°03' E 002°17'0 0.0
2017-Oct-31 01:58N 51°03' E 002°17'0 0.0
2017-Oct-31 01:22N 51°03' E 002°17'0 0.0
2017-Oct-31 00:55N 51°03' E 002°17'0 0.0
2017-Oct-31 00:13N 51°03' E 002°17'0 0.0
2017-Oct-30 23:46N 51°03' E 002°17'0 0.0
2017-Oct-30 23:25N 51°03' E 002°17'0 0.0
2017-Oct-30 22:49N 51°03' E 002°17'0 0.0
2017-Oct-30 22:25N 51°03' E 002°17'0 0.0
2017-Oct-30 21:52N 51°03' E 002°17'0 0.0
2017-Oct-30 21:19N 51°03' E 002°17'0 0.0
2017-Oct-30 20:55N 51°03' E 002°17'0 0.0
2017-Oct-30 20:28N 51°03' E 002°17'0 0.0
2017-Oct-30 19:55N 51°03' E 002°17'0 0.0
2017-Oct-30 19:28N 51°03' E 002°17'0 0.0
2017-Oct-30 18:52N 51°03' E 002°17'0 0.0
2017-Oct-30 18:25N 51°03' E 002°17'0 0.0
2017-Oct-30 17:58N 51°03' E 002°17'0 0.0
2017-Oct-30 17:13N 51°03' E 002°17'0 0.0
2017-Oct-30 16:58N 51°03' E 002°17'0 0.0
2017-Oct-30 16:28N 51°03' E 002°17'0 0.0
2017-Oct-30 15:58N 51°03' E 002°17'0 0.0
2017-Oct-30 15:28N 51°03' E 002°17'0 0.0
2017-Oct-30 14:55N 51°03' E 002°17'0 0.0
2017-Oct-30 14:28N 51°03' E 002°17'0 0.0
2017-Oct-30 13:25N 51°03' E 002°17'0 0.0
2017-Oct-30 12:28N 51°03' E 002°17'0 0.0
2017-Oct-30 11:49N 51°03' E 002°17'0 0.0
2017-Oct-30 11:28N 51°03' E 002°17'0 0.0
2017-Oct-30 10:58N 51°03' E 002°17'0 0.0
2017-Oct-30 09:58N 51°03' E 002°17'0 0.0
2017-Oct-30 09:28N 51°03' E 002°17'0 0.0
2017-Oct-30 08:58N 51°03' E 002°17'0 0.0
2017-Oct-30 08:28N 51°03' E 002°17'0 0.0
2017-Oct-30 07:40N 51°03' E 002°17'0 0.0
2017-Oct-30 07:19N 51°03' E 002°17'0 0.0
2017-Oct-30 06:52N 51°03' E 002°17'0 0.0
2017-Oct-30 06:19N 51°03' E 002°17'0 0.0
2017-Oct-30 05:58N 51°03' E 002°17'0 0.0
2017-Oct-30 04:13N 51°03' E 002°17'0 0.0
2017-Oct-30 03:55N 51°03' E 002°17'0 0.0
2017-Oct-30 03:28N 51°03' E 002°17'0 0.0
2017-Oct-30 02:58N 51°03' E 002°17'0 0.0
2017-Oct-30 02:22N 51°03' E 002°17'0 0.0
2017-Oct-30 01:49N 51°03' E 002°17'0 0.0
2017-Oct-30 01:28N 51°03' E 002°17'0 0.0
2017-Oct-30 00:58N 51°03' E 002°17'0 0.0
2017-Oct-30 00:28N 51°03' E 002°17'0 0.0
2017-Oct-29 23:49N 51°03' E 002°17'0 0.0
2017-Oct-29 23:28N 51°03' E 002°17'0 0.0
2017-Oct-29 22:58N 51°03' E 002°17'0 0.0
2017-Oct-29 22:28N 51°03' E 002°17'0 0.0
2017-Oct-29 21:52N 51°03' E 002°17'0 0.0
2017-Oct-29 21:25N 51°03' E 002°17'0 0.0
2017-Oct-29 20:13N 51°03' E 002°17'0 0.0
2017-Oct-29 19:40N 51°03' E 002°17'0 0.0
2017-Oct-29 19:28N 51°03' E 002°17'0 0.0
2017-Oct-29 18:40N 51°03' E 002°17'0 0.0
2017-Oct-29 18:09N 51°03' E 002°16'0 0.6
2017-Oct-29 18:00N 51°03' E 002°16'1 2.6
2017-Oct-29 17:30N 51°03' E 002°18'1 3.0
2017-Oct-29 17:00N 51°03' E 002°21'0 0.3
2017-Oct-29 16:30N 51°03' E 002°21'1 1.4
2017-Oct-29 15:57N 51°04' E 002°20'4 9.6
2017-Oct-29 15:30N 51°04' E 002°14'610.6
2017-Oct-29 14:59N 51°03' E 002°05'5 9.9
2017-Oct-29 14:30N 51°02' E 001°57'4 8.8
2017-Oct-29 14:00N 51°03' E 001°50'2 3.1
2017-Oct-29 13:30N 51°03' E 001°48'0 0.2
2017-Oct-29 12:56N 51°03' E 001°48'0 0.0
2017-Oct-29 12:29N 51°03' E 001°48'0 0.0
2017-Oct-29 11:59N 51°03' E 001°48'0 0.0
2017-Oct-29 11:29N 51°03' E 001°48'0 0.0
2017-Oct-29 10:59N 51°03' E 001°48'0 0.0
2017-Oct-29 10:26N 51°03' E 001°48'0 0.0
2017-Oct-29 09:59N 51°03' E 001°48'0 0.1
2017-Oct-29 09:30N 51°03' E 001°48'1 1.4
2017-Oct-29 09:00N 51°03' E 001°47'2 3.6
2017-Oct-29 08:30N 51°02' E 001°45'3 5.3
2017-Oct-29 08:00N 51°03' E 001°41'4 8.3
2017-Oct-29 07:30N 51°06' E 001°35'4 7.5
2017-Oct-29 07:00N 51°09' E 001°39'3 6.8
2017-Oct-29 06:30N 51°11' E 001°43'3 6.3
2017-Oct-29 06:00N 51°13' E 001°47'3 6.5
2017-Oct-29 05:30N 51°16' E 001°49'4 7.9
2017-Oct-29 05:00N 51°20' E 001°52'510.2
2017-Oct-29 04:30N 51°24' E 001°56'5 9.8
2017-Oct-29 04:00N 51°28' E 002°01'75 8.3
2017-Oct-28 19:00N 52°04' E 003°47'4 8.1
2017-Oct-28 18:30N 52°03' E 003°54'2 3.7
2017-Oct-28 18:00N 52°02' E 003°55'3 6.2
2017-Oct-28 17:30N 52°00' E 003°60'4 7.1
2017-Oct-28 17:00N 51°59' E 004°05'4 8.0
2017-Oct-28 16:30N 51°57' E 004°11'4 8.7
2017-Oct-28 16:00N 51°54' E 004°16'1 2.9
2017-Oct-28 15:30N 51°53' E 004°18'1 1.3
2017-Oct-28 14:59N 51°53' E 004°16'0 0.0
2017-Oct-28 14:29N 51°53' E 004°16'0 0.0
2017-Oct-28 13:59N 51°53' E 004°16'0 0.0
2017-Oct-28 13:29N 51°53' E 004°16'0 0.0
2017-Oct-28 12:59N 51°53' E 004°16'0 0.0
2017-Oct-28 12:29N 51°53' E 004°16'0 0.0
2017-Oct-28 11:59N 51°53' E 004°16'0 0.0
2017-Oct-28 11:29N 51°53' E 004°16'0 0.0
2017-Oct-28 10:59N 51°53' E 004°16'0 0.0
2017-Oct-28 10:29N 51°53' E 004°16'0 0.0
2017-Oct-28 09:59N 51°53' E 004°16'0 0.0
2017-Oct-28 09:29N 51°53' E 004°16'0 0.0
2017-Oct-28 08:59N 51°53' E 004°16'0 0.0
2017-Oct-28 08:29N 51°53' E 004°16'0 0.0
2017-Oct-28 07:59N 51°53' E 004°16'0 0.0
2017-Oct-28 07:29N 51°53' E 004°16'0 0.0
2017-Oct-28 06:59N 51°53' E 004°16'0 0.0
2017-Oct-28 06:29N 51°53' E 004°16'0 0.0
2017-Oct-28 05:59N 51°53' E 004°16'0 0.0
2017-Oct-28 05:29N 51°53' E 004°16'0 0.0
2017-Oct-28 04:56N 51°53' E 004°16'0 0.0
2017-Oct-28 04:28N 51°53' E 004°16'0 0.0
2017-Oct-28 03:59N 51°53' E 004°16'0 0.0
2017-Oct-28 03:29N 51°53' E 004°16'0 0.0
2017-Oct-28 02:59N 51°53' E 004°16'0 0.0
2017-Oct-28 02:28N 51°53' E 004°16'0 0.0
2017-Oct-28 01:59N 51°53' E 004°16'0 0.0
2017-Oct-28 01:29N 51°53' E 004°16'0 0.0
2017-Oct-28 00:59N 51°53' E 004°16'0 0.0
2017-Oct-28 00:29N 51°53' E 004°16'0 0.0
2017-Oct-27 23:58N 51°53' E 004°16'0 0.0
2017-Oct-27 23:29N 51°53' E 004°16'0 0.0
2017-Oct-27 22:58N 51°53' E 004°16'0 0.0
2017-Oct-27 22:29N 51°53' E 004°16'0 0.0
2017-Oct-27 21:59N 51°53' E 004°16'0 0.0
2017-Oct-27 21:29N 51°53' E 004°16'0 0.0
2017-Oct-27 20:58N 51°53' E 004°16'0 0.0
2017-Oct-27 20:28N 51°53' E 004°16'0 0.0
2017-Oct-27 19:59N 51°53' E 004°16'0 0.0
2017-Oct-27 19:28N 51°53' E 004°16'0 0.0
2017-Oct-27 18:59N 51°53' E 004°16'0 0.0
2017-Oct-27 18:29N 51°53' E 004°16'0 0.0
2017-Oct-27 17:59N 51°53' E 004°16'0 0.0
2017-Oct-27 17:29N 51°53' E 004°16'0 0.0
2017-Oct-27 16:58N 51°53' E 004°16'0 0.0
2017-Oct-27 16:28N 51°53' E 004°16'0 0.0
2017-Oct-27 15:58N 51°53' E 004°16'0 0.0
2017-Oct-27 15:29N 51°53' E 004°16'0 0.0
2017-Oct-27 14:58N 51°53' E 004°16'0 0.0
2017-Oct-27 14:28N 51°53' E 004°16'0 0.0
2017-Oct-27 13:59N 51°53' E 004°16'0 0.0
2017-Oct-27 13:28N 51°53' E 004°16'0 0.0
2017-Oct-27 12:59N 51°53' E 004°16'0 0.0
2017-Oct-27 12:28N 51°53' E 004°16'0 0.0
2017-Oct-27 11:59N 51°53' E 004°16'0 0.0
2017-Oct-27 11:28N 51°53' E 004°16'0 0.0
2017-Oct-27 10:58N 51°53' E 004°16'0 0.0
2017-Oct-27 10:25N 51°53' E 004°16'0 0.0
2017-Oct-27 09:58N 51°53' E 004°16'0 0.0
2017-Oct-27 09:28N 51°53' E 004°16'0 0.0
2017-Oct-27 08:58N 51°53' E 004°16'0 0.0
2017-Oct-27 08:28N 51°53' E 004°16'0 0.0
2017-Oct-27 07:58N 51°53' E 004°16'0 0.0
2017-Oct-27 07:28N 51°53' E 004°16'0 0.0
2017-Oct-27 06:58N 51°53' E 004°16'0 0.0
2017-Oct-27 06:28N 51°53' E 004°16'0 0.0
2017-Oct-27 05:58N 51°53' E 004°16'0 0.0
2017-Oct-27 05:28N 51°53' E 004°16'0 0.0
2017-Oct-27 04:58N 51°53' E 004°16'0 0.0
2017-Oct-27 04:25N 51°53' E 004°16'0 0.0
2017-Oct-27 03:58N 51°53' E 004°16'0 0.0
2017-Oct-27 03:28N 51°53' E 004°16'0 0.0
2017-Oct-27 02:58N 51°53' E 004°16'0 0.0
2017-Oct-27 02:28N 51°53' E 004°16'0 0.0
2017-Oct-27 01:52N 51°53' E 004°16'0 0.0
2017-Oct-27 01:28N 51°53' E 004°16'0 0.0
2017-Oct-27 00:58N 51°53' E 004°16'0 0.0
2017-Oct-27 00:28N 51°53' E 004°16'0 0.0
2017-Oct-26 23:58N 51°53' E 004°16'0 0.0
2017-Oct-26 23:28N 51°53' E 004°16'0 0.0
2017-Oct-26 22:58N 51°53' E 004°16'0 0.0
2017-Oct-26 22:25N 51°53' E 004°16'0 0.0
2017-Oct-26 21:58N 51°53' E 004°16'0 0.0
2017-Oct-26 21:28N 51°53' E 004°16'0 0.0
2017-Oct-26 20:58N 51°53' E 004°16'0 0.0
2017-Oct-26 20:28N 51°53' E 004°16'0 0.0
2017-Oct-26 19:58N 51°53' E 004°16'0 0.0
2017-Oct-26 19:28N 51°53' E 004°16'0 0.0
2017-Oct-26 18:58N 51°53' E 004°16'0 0.0
2017-Oct-26 18:28N 51°53' E 004°16'0 0.0
2017-Oct-26 17:58N 51°53' E 004°16'0 0.0
2017-Oct-26 17:28N 51°53' E 004°16'0 0.0
2017-Oct-26 16:58N 51°53' E 004°16'0 0.0
2017-Oct-26 16:28N 51°53' E 004°16'0 0.0
2017-Oct-26 15:58N 51°53' E 004°16'0 0.0
2017-Oct-26 15:28N 51°53' E 004°16'0 0.0
2017-Oct-26 14:58N 51°53' E 004°16'0 0.0
2017-Oct-26 14:28N 51°53' E 004°16'0 0.0
2017-Oct-26 13:58N 51°53' E 004°16'0 0.0
2017-Oct-26 13:28N 51°53' E 004°16'0 0.0
2017-Oct-26 12:58N 51°53' E 004°16'0 0.0
2017-Oct-26 12:28N 51°53' E 004°16'0 0.0
2017-Oct-26 11:55N 51°53' E 004°16'0 0.0
2017-Oct-26 11:28N 51°53' E 004°16'0 0.0
2017-Oct-26 10:58N 51°53' E 004°16'0 0.0
2017-Oct-26 10:28N 51°53' E 004°16'0 0.0
2017-Oct-26 09:58N 51°53' E 004°16'0 0.0
2017-Oct-26 09:25N 51°53' E 004°16'0 0.0
2017-Oct-26 08:58N 51°53' E 004°16'0 0.0
2017-Oct-26 08:28N 51°53' E 004°16'0 0.0
2017-Oct-26 07:58N 51°53' E 004°16'0 0.0
2017-Oct-26 07:28N 51°53' E 004°16'0 0.0
2017-Oct-26 06:58N 51°53' E 004°16'0 0.0
2017-Oct-26 06:28N 51°53' E 004°16'0 0.0
2017-Oct-26 05:58N 51°53' E 004°16'0 0.0
2017-Oct-26 05:28N 51°53' E 004°16'0 0.0
2017-Oct-26 04:58N 51°53' E 004°16'  
Track history (hours):
 
Tides and Currents Weather Stations Pressure Air Temp Water Temp Dewpoint Dewpoint Depression Visibility Wind Speed Wind Dir Waves Ship Positions

Hercules

Last reported at 2017-Nov-05 04:43 UTC. Time now 2017-Nov-17 17:52 UTC.
Position N 38°21' W 010°01'.
Warning: this ship's position is 12 days out of date.

Length 225 m; draft 12.8 m.

Type: Cargo ship. MMSI: 636015986.

Date/timePositionNaut miles runAvg speedWind from/ knotsBaromVisibWave heightAir tempDewpointWater temp
2017-Nov-05 04:43N 38°21' W 010°01'312.6
2017-Nov-05 04:30N 38°23' W 010°01'612.6
2017-Nov-05 04:00N 38°29' W 010°03'612.7
2017-Nov-05 03:30N 38°35' W 010°05'612.5
2017-Nov-05 03:00N 38°42' W 010°07'612.1
2017-Nov-05 02:30N 38°48' W 010°07'611.7
2017-Nov-05 02:00N 38°53' W 010°08'611.9
2017-Nov-05 01:30N 38°59' W 010°09'611.6
2017-Nov-05 01:00N 39°05' W 010°09'611.9
2017-Nov-05 00:30N 39°11' W 010°09'56812.6
2017-Nov-03 03:24N 48°14' W 006°19'612.1
2017-Nov-03 02:56N 48°19' W 006°15'511.6
2017-Nov-03 02:27N 48°24' W 006°11'1311.3
2017-Nov-03 01:17N 48°36' W 006°01'311.2
2017-Nov-03 01:01N 48°38' W 005°59'611.3
2017-Nov-03 00:26N 48°44' W 005°55'612.0
2017-Nov-02 23:57N 48°49' W 005°51'612.1
2017-Nov-02 23:29N 48°54' W 005°45'613.1
2017-Nov-02 22:59N 48°57' W 005°37'713.4
2017-Nov-02 22:26N 49°02' W 005°29'713.6
2017-Nov-02 21:57N 49°07' W 005°22'4912.9
2017-Nov-02 18:08N 49°35' W 004°19'1712.1
2017-Nov-02 16:44N 49°42' W 003°55'511.6
2017-Nov-02 16:19N 49°44' W 003°48'411.5
2017-Nov-02 16:00N 49°45' W 003°43'711.5
2017-Nov-02 15:22N 49°48' W 003°33'411.8
2017-Nov-02 15:00N 49°50' W 003°27'612.3
2017-Nov-02 14:30N 49°52' W 003°18'713.0
2017-Nov-02 14:00N 49°55' W 003°09'713.8
2017-Nov-02 13:30N 49°58' W 002°59'714.3
2017-Nov-02 13:00N 50°00' W 002°48'815.1
2017-Nov-02 12:30N 50°02' W 002°37'815.6
2017-Nov-02 12:00N 50°04' W 002°25'1615.9
2017-Nov-02 11:00N 50°08' W 002°01'715.2
2017-Nov-02 10:30N 50°10' W 001°50'714.3
2017-Nov-02 10:00N 50°12' W 001°39'713.5
2017-Nov-02 09:29N 50°14' W 001°28'2111.8
2017-Nov-02 07:44N 50°19' W 000°57'210.5
2017-Nov-02 07:30N 50°20' W 000°53'1710.0
2017-Nov-02 05:48N 50°25' W 000°28'310.7
2017-Nov-02 05:30N 50°25' W 000°23'611.3
2017-Nov-02 05:00N 50°27' W 000°14'612.0
2017-Nov-02 04:30N 50°29' W 000°05'612.6
2017-Nov-02 04:00N 50°30' E 000°04'713.2
2017-Nov-02 03:30N 50°32' E 000°14'713.6
2017-Nov-02 03:00N 50°34' E 000°24'713.8
2017-Nov-02 02:30N 50°36' E 000°35'713.8
2017-Nov-02 02:00N 50°40' E 000°43'713.5
2017-Nov-02 01:30N 50°45' E 000°52'713.1
2017-Nov-02 01:00N 50°49' E 001°00'612.5
2017-Nov-02 00:30N 50°53' E 001°07'611.7
2017-Nov-02 00:00N 50°57' E 001°14'510.8
2017-Nov-01 23:30N 51°01' E 001°20'5 9.9
2017-Nov-01 23:00N 51°03' E 001°27'5 9.4
2017-Nov-01 22:30N 51°05' E 001°33'4 8.0
2017-Nov-01 22:00N 51°07' E 001°39'5 9.7
2017-Nov-01 21:30N 51°03' E 001°45'4 7.6
2017-Nov-01 21:00N 51°03' E 001°51'4 7.4
2017-Nov-01 20:30N 51°03' E 001°57'5 9.6
2017-Nov-01 20:00N 51°03' E 002°04'510.2
2017-Nov-01 19:30N 51°03' E 002°12'5 9.6
2017-Nov-01 19:00N 51°04' E 002°20'1 1.3
2017-Nov-01 18:30N 51°03' E 002°20'3 0.2
2017-Nov-01 01:58N 51°03' E 002°16'0 0.0
2017-Nov-01 01:22N 51°03' E 002°16'0 0.0
2017-Nov-01 00:58N 51°03' E 002°16'0 0.0
2017-Nov-01 00:25N 51°03' E 002°16'0 0.0
2017-Oct-31 23:52N 51°03' E 002°16'0 0.0
2017-Oct-31 23:28N 51°03' E 002°16'0 0.0
2017-Oct-31 22:58N 51°03' E 002°16'0 0.0
2017-Oct-31 22:28N 51°03' E 002°16'0 0.0
2017-Oct-31 21:58N 51°03' E 002°16'0 0.0
2017-Oct-31 21:28N 51°03' E 002°16'0 0.0
2017-Oct-31 20:58N 51°03' E 002°16'0 0.0
2017-Oct-31 20:28N 51°03' E 002°16'0 0.0
2017-Oct-31 19:52N 51°03' E 002°16'0 0.0
2017-Oct-31 19:25N 51°03' E 002°16'0 0.0
2017-Oct-31 18:52N 51°03' E 002°16'0 0.0
2017-Oct-31 18:22N 51°03' E 002°16'0 0.0
2017-Oct-31 17:58N 51°03' E 002°16'0 0.0
2017-Oct-31 17:28N 51°03' E 002°16'0 0.0
2017-Oct-31 16:58N 51°03' E 002°16'0 0.0
2017-Oct-31 16:25N 51°03' E 002°16'0 0.0
2017-Oct-31 15:58N 51°03' E 002°16'0 0.0
2017-Oct-31 15:28N 51°03' E 002°16'0 0.0
2017-Oct-31 14:58N 51°03' E 002°16'0 0.0
2017-Oct-31 14:25N 51°03' E 002°16'0 0.0
2017-Oct-31 13:58N 51°03' E 002°16'0 0.0
2017-Oct-31 13:22N 51°03' E 002°16'0 0.0
2017-Oct-31 11:49N 51°03' E 002°16'0 0.0
2017-Oct-31 11:28N 51°03' E 002°16'0 0.0
2017-Oct-31 10:49N 51°03' E 002°16'0 0.0
2017-Oct-31 10:28N 51°03' E 002°16'0 0.0
2017-Oct-31 09:55N 51°03' E 002°17'0 0.0
2017-Oct-31 09:16N 51°03' E 002°17'0 0.0
2017-Oct-31 08:55N 51°03' E 002°17'0 0.0
2017-Oct-31 08:28N 51°03' E 002°17'0 0.0
2017-Oct-31 07:46N 51°03' E 002°17'0 0.0
2017-Oct-31 07:28N 51°03' E 002°17'0 0.0
2017-Oct-31 06:58N 51°03' E 002°17'0 0.0
2017-Oct-31 06:28N 51°03' E 002°17'0 0.0
2017-Oct-31 05:58N 51°03' E 002°17'0 0.0
2017-Oct-31 05:28N 51°03' E 002°17'0 0.0
2017-Oct-31 04:58N 51°03' E 002°17'0 0.0
2017-Oct-31 04:25N 51°03' E 002°17'0 0.0
2017-Oct-31 03:58N 51°03' E 002°17'0 0.0
2017-Oct-31 03:28N 51°03' E 002°17'0 0.0
2017-Oct-31 02:58N 51°03' E 002°17'0 0.0
2017-Oct-31 02:28N 51°03' E 002°17'0 0.0
2017-Oct-31 01:58N 51°03' E 002°17'0 0.0
2017-Oct-31 01:22N 51°03' E 002°17'0 0.0
2017-Oct-31 00:55N 51°03' E 002°17'0 0.0
2017-Oct-31 00:13N 51°03' E 002°17'0 0.0
2017-Oct-30 23:46N 51°03' E 002°17'0 0.0
2017-Oct-30 23:25N 51°03' E 002°17'0 0.0
2017-Oct-30 22:49N 51°03' E 002°17'0 0.0
2017-Oct-30 22:25N 51°03' E 002°17'0 0.0
2017-Oct-30 21:52N 51°03' E 002°17'0 0.0
2017-Oct-30 21:19N 51°03' E 002°17'0 0.0
2017-Oct-30 20:55N 51°03' E 002°17'0 0.0
2017-Oct-30 20:28N 51°03' E 002°17'0 0.0
2017-Oct-30 19:55N 51°03' E 002°17'0 0.0
2017-Oct-30 19:28N 51°03' E 002°17'0 0.0
2017-Oct-30 18:52N 51°03' E 002°17'0 0.0
2017-Oct-30 18:25N 51°03' E 002°17'0 0.0
2017-Oct-30 17:58N 51°03' E 002°17'0 0.0
2017-Oct-30 17:13N 51°03' E 002°17'0 0.0
2017-Oct-30 16:58N 51°03' E 002°17'0 0.0
2017-Oct-30 16:28N 51°03' E 002°17'0 0.0
2017-Oct-30 15:58N 51°03' E 002°17'0 0.0
2017-Oct-30 15:28N 51°03' E 002°17'0 0.0
2017-Oct-30 14:55N 51°03' E 002°17'0 0.0
2017-Oct-30 14:28N 51°03' E 002°17'0 0.0
2017-Oct-30 13:25N 51°03' E 002°17'0 0.0
2017-Oct-30 12:28N 51°03' E 002°17'0 0.0
2017-Oct-30 11:49N 51°03' E 002°17'0 0.0
2017-Oct-30 11:28N 51°03' E 002°17'0 0.0
2017-Oct-30 10:58N 51°03' E 002°17'0 0.0
2017-Oct-30 09:58N 51°03' E 002°17'0 0.0
2017-Oct-30 09:28N 51°03' E 002°17'0 0.0
2017-Oct-30 08:58N 51°03' E 002°17'0 0.0
2017-Oct-30 08:28N 51°03' E 002°17'0 0.0
2017-Oct-30 07:40N 51°03' E 002°17'0 0.0
2017-Oct-30 07:19N 51°03' E 002°17'0 0.0
2017-Oct-30 06:52N 51°03' E 002°17'0 0.0
2017-Oct-30 06:19N 51°03' E 002°17'0 0.0
2017-Oct-30 05:58N 51°03' E 002°17'0 0.0
2017-Oct-30 04:13N 51°03' E 002°17'0 0.0
2017-Oct-30 03:55N 51°03' E 002°17'0 0.0
2017-Oct-30 03:28N 51°03' E 002°17'0 0.0
2017-Oct-30 02:58N 51°03' E 002°17'0 0.0
2017-Oct-30 02:22N 51°03' E 002°17'0 0.0
2017-Oct-30 01:49N 51°03' E 002°17'0 0.0
2017-Oct-30 01:28N 51°03' E 002°17'0 0.0
2017-Oct-30 00:58N 51°03' E 002°17'0 0.0
2017-Oct-30 00:28N 51°03' E 002°17'0 0.0
2017-Oct-29 23:49N 51°03' E 002°17'0 0.0
2017-Oct-29 23:28N 51°03' E 002°17'0 0.0
2017-Oct-29 22:58N 51°03' E 002°17'0 0.0
2017-Oct-29 22:28N 51°03' E 002°17'0 0.0
2017-Oct-29 21:52N 51°03' E 002°17'0 0.0
2017-Oct-29 21:25N 51°03' E 002°17'0 0.0
2017-Oct-29 20:13N 51°03' E 002°17'0 0.0
2017-Oct-29 19:40N 51°03' E 002°17'0 0.0
2017-Oct-29 19:28N 51°03' E 002°17'0 0.0
2017-Oct-29 18:40N 51°03' E 002°17'0 0.0
2017-Oct-29 18:09N 51°03' E 002°16'0 0.6
2017-Oct-29 18:00N 51°03' E 002°16'1 2.6
2017-Oct-29 17:30N 51°03' E 002°18'1 3.0
2017-Oct-29 17:00N 51°03' E 002°21'0 0.3
2017-Oct-29 16:30N 51°03' E 002°21'1 1.4
2017-Oct-29 15:57N 51°04' E 002°20'4 9.6
2017-Oct-29 15:30N 51°04' E 002°14'610.6
2017-Oct-29 14:59N 51°03' E 002°05'5 9.9
2017-Oct-29 14:30N 51°02' E 001°57'4 8.8
2017-Oct-29 14:00N 51°03' E 001°50'2 3.1
2017-Oct-29 13:30N 51°03' E 001°48'0 0.2
2017-Oct-29 12:56N 51°03' E 001°48'0 0.0
2017-Oct-29 12:29N 51°03' E 001°48'0 0.0
2017-Oct-29 11:59N 51°03' E 001°48'0 0.0
2017-Oct-29 11:29N 51°03' E 001°48'0 0.0
2017-Oct-29 10:59N 51°03' E 001°48'0 0.0
2017-Oct-29 10:26N 51°03' E 001°48'0 0.0
2017-Oct-29 09:59N 51°03' E 001°48'0 0.1
2017-Oct-29 09:30N 51°03' E 001°48'1 1.4
2017-Oct-29 09:00N 51°03' E 001°47'2 3.6
2017-Oct-29 08:30N 51°02' E 001°45'3 5.3
2017-Oct-29 08:00N 51°03' E 001°41'4 8.3
2017-Oct-29 07:30N 51°06' E 001°35'4 7.5
2017-Oct-29 07:00N 51°09' E 001°39'3 6.8
2017-Oct-29 06:30N 51°11' E 001°43'3 6.3
2017-Oct-29 06:00N 51°13' E 001°47'3 6.5
2017-Oct-29 05:30N 51°16' E 001°49'4 7.9
2017-Oct-29 05:00N 51°20' E 001°52'510.2
2017-Oct-29 04:30N 51°24' E 001°56'5 9.8
2017-Oct-29 04:00N 51°28' E 002°01'75 8.3
2017-Oct-28 19:00N 52°04' E 003°47'4 8.1
2017-Oct-28 18:30N 52°03' E 003°54'2 3.7
2017-Oct-28 18:00N 52°02' E 003°55'3 6.2
2017-Oct-28 17:30N 52°00' E 003°60'4 7.1
2017-Oct-28 17:00N 51°59' E 004°05'4 8.0
2017-Oct-28 16:30N 51°57' E 004°11'4 8.7
2017-Oct-28 16:00N 51°54' E 004°16'1 2.9
2017-Oct-28 15:30N 51°53' E 004°18'1 1.3
2017-Oct-28 14:59N 51°53' E 004°16'0 0.0
2017-Oct-28 14:29N 51°53' E 004°16'0 0.0
2017-Oct-28 13:59N 51°53' E 004°16'0 0.0
2017-Oct-28 13:29N 51°53' E 004°16'0 0.0
2017-Oct-28 12:59N 51°53' E 004°16'0 0.0
2017-Oct-28 12:29N 51°53' E 004°16'0 0.0
2017-Oct-28 11:59N 51°53' E 004°16'0 0.0
2017-Oct-28 11:29N 51°53' E 004°16'0 0.0
2017-Oct-28 10:59N 51°53' E 004°16'0 0.0
2017-Oct-28 10:29N 51°53' E 004°16'0 0.0
2017-Oct-28 09:59N 51°53' E 004°16'0 0.0
2017-Oct-28 09:29N 51°53' E 004°16'0 0.0
2017-Oct-28 08:59N 51°53' E 004°16'0 0.0
2017-Oct-28 08:29N 51°53' E 004°16'0 0.0
2017-Oct-28 07:59N 51°53' E 004°16'0 0.0
2017-Oct-28 07:29N 51°53' E 004°16'0 0.0
2017-Oct-28 06:59N 51°53' E 004°16'0 0.0
2017-Oct-28 06:29N 51°53' E 004°16'0 0.0
2017-Oct-28 05:59N 51°53' E 004°16'0 0.0
2017-Oct-28 05:29N 51°53' E 004°16'0 0.0
2017-Oct-28 04:56N 51°53' E 004°16'0 0.0
2017-Oct-28 04:28N 51°53' E 004°16'0 0.0
2017-Oct-28 03:59N 51°53' E 004°16'0 0.0
2017-Oct-28 03:29N 51°53' E 004°16'0 0.0
2017-Oct-28 02:59N 51°53' E 004°16'0 0.0
2017-Oct-28 02:28N 51°53' E 004°16'0 0.0
2017-Oct-28 01:59N 51°53' E 004°16'0 0.0
2017-Oct-28 01:29N 51°53' E 004°16'0 0.0
2017-Oct-28 00:59N 51°53' E 004°16'0 0.0
2017-Oct-28 00:29N 51°53' E 004°16'0 0.0
2017-Oct-27 23:58N 51°53' E 004°16'0 0.0
2017-Oct-27 23:29N 51°53' E 004°16'0 0.0
2017-Oct-27 22:58N 51°53' E 004°16'0 0.0
2017-Oct-27 22:29N 51°53' E 004°16'0 0.0
2017-Oct-27 21:59N 51°53' E 004°16'0 0.0
2017-Oct-27 21:29N 51°53' E 004°16'0 0.0
2017-Oct-27 20:58N 51°53' E 004°16'0 0.0
2017-Oct-27 20:28N 51°53' E 004°16'0 0.0
2017-Oct-27 19:59N 51°53' E 004°16'0 0.0
2017-Oct-27 19:28N 51°53' E 004°16'0 0.0
2017-Oct-27 18:59N 51°53' E 004°16'0 0.0
2017-Oct-27 18:29N 51°53' E 004°16'0 0.0
2017-Oct-27 17:59N 51°53' E 004°16'0 0.0
2017-Oct-27 17:29N 51°53' E 004°16'0 0.0
2017-Oct-27 16:58N 51°53' E 004°16'0 0.0
2017-Oct-27 16:28N 51°53' E 004°16'0 0.0
2017-Oct-27 15:58N 51°53' E 004°16'0 0.0
2017-Oct-27 15:29N 51°53' E 004°16'0 0.0
2017-Oct-27 14:58N 51°53' E 004°16'0 0.0
2017-Oct-27 14:28N 51°53' E 004°16'0 0.0
2017-Oct-27 13:59N 51°53' E 004°16'0 0.0
2017-Oct-27 13:28N 51°53' E 004°16'0 0.0
2017-Oct-27 12:59N 51°53' E 004°16'0 0.0
2017-Oct-27 12:28N 51°53' E 004°16'0 0.0
2017-Oct-27 11:59N 51°53' E 004°16'0 0.0
2017-Oct-27 11:28N 51°53' E 004°16'0 0.0
2017-Oct-27 10:58N 51°53' E 004°16'0 0.0
2017-Oct-27 10:25N 51°53' E 004°16'0 0.0
2017-Oct-27 09:58N 51°53' E 004°16'0 0.0
2017-Oct-27 09:28N 51°53' E 004°16'0 0.0
2017-Oct-27 08:58N 51°53' E 004°16'0 0.0
2017-Oct-27 08:28N 51°53' E 004°16'0 0.0
2017-Oct-27 07:58N 51°53' E 004°16'0 0.0
2017-Oct-27 07:28N 51°53' E 004°16'0 0.0
2017-Oct-27 06:58N 51°53' E 004°16'0 0.0
2017-Oct-27 06:28N 51°53' E 004°16'0 0.0
2017-Oct-27 05:58N 51°53' E 004°16'0 0.0
2017-Oct-27 05:28N 51°53' E 004°16'0 0.0
2017-Oct-27 04:58N 51°53' E 004°16'0 0.0
2017-Oct-27 04:25N 51°53' E 004°16'0 0.0
2017-Oct-27 03:58N 51°53' E 004°16'0 0.0
2017-Oct-27 03:28N 51°53' E 004°16'0 0.0
2017-Oct-27 02:58N 51°53' E 004°16'0 0.0
2017-Oct-27 02:28N 51°53' E 004°16'0 0.0
2017-Oct-27 01:52N 51°53' E 004°16'0 0.0
2017-Oct-27 01:28N 51°53' E 004°16'0 0.0
2017-Oct-27 00:58N 51°53' E 004°16'0 0.0
2017-Oct-27 00:28N 51°53' E 004°16'0 0.0
2017-Oct-26 23:58N 51°53' E 004°16'0 0.0
2017-Oct-26 23:28N 51°53' E 004°16'0 0.0
2017-Oct-26 22:58N 51°53' E 004°16'0 0.0
2017-Oct-26 22:25N 51°53' E 004°16'0 0.0
2017-Oct-26 21:58N 51°53' E 004°16'0 0.0
2017-Oct-26 21:28N 51°53' E 004°16'0 0.0
2017-Oct-26 20:58N 51°53' E 004°16'0 0.0
2017-Oct-26 20:28N 51°53' E 004°16'0 0.0
2017-Oct-26 19:58N 51°53' E 004°16'0 0.0
2017-Oct-26 19:28N 51°53' E 004°16'0 0.0
2017-Oct-26 18:58N 51°53' E 004°16'0 0.0
2017-Oct-26 18:28N 51°53' E 004°16'0 0.0
2017-Oct-26 17:58N 51°53' E 004°16'0 0.0
2017-Oct-26 17:28N 51°53' E 004°16'0 0.0
2017-Oct-26 16:58N 51°53' E 004°16'0 0.0
2017-Oct-26 16:28N 51°53' E 004°16'0 0.0
2017-Oct-26 15:58N 51°53' E 004°16'0 0.0
2017-Oct-26 15:28N 51°53' E 004°16'0 0.0
2017-Oct-26 14:58N 51°53' E 004°16'0 0.0
2017-Oct-26 14:28N 51°53' E 004°16'0 0.0
2017-Oct-26 13:58N 51°53' E 004°16'0 0.0
2017-Oct-26 13:28N 51°53' E 004°16'0 0.0
2017-Oct-26 12:58N 51°53' E 004°16'0 0.0
2017-Oct-26 12:28N 51°53' E 004°16'0 0.0
2017-Oct-26 11:55N 51°53' E 004°16'0 0.0
2017-Oct-26 11:28N 51°53' E 004°16'0 0.0
2017-Oct-26 10:58N 51°53' E 004°16'0 0.0
2017-Oct-26 10:28N 51°53' E 004°16'0 0.0
2017-Oct-26 09:58N 51°53' E 004°16'0 0.0
2017-Oct-26 09:25N 51°53' E 004°16'0 0.0
2017-Oct-26 08:58N 51°53' E 004°16'0 0.0
2017-Oct-26 08:28N 51°53' E 004°16'0 0.0
2017-Oct-26 07:58N 51°53' E 004°16'0 0.0
2017-Oct-26 07:28N 51°53' E 004°16'0 0.0
2017-Oct-26 06:58N 51°53' E 004°16'0 0.0
2017-Oct-26 06:28N 51°53' E 004°16'0 0.0
2017-Oct-26 05:58N 51°53' E 004°16'0 0.0
2017-Oct-26 05:28N 51°53' E 004°16'0 0.0
2017-Oct-26 04:58N 51°53' E 004°16'  

Dump ship's entire track history